createdAt,value
2018-11-11T00:00:15.415Z,1.2
2018-11-11T00:01:05.464Z,1.2
2018-11-11T00:01:56.096Z,1.2
2018-11-11T00:02:45.828Z,1.2
2018-11-11T00:03:36.226Z,1.1
2018-11-11T00:04:25.797Z,1.1
2018-11-11T00:05:16.076Z,1.1
2018-11-11T00:06:06.143Z,1.1
2018-11-11T00:06:56.449Z,1.1
2018-11-11T00:25:05.008Z,0.9
2018-11-11T00:25:54.810Z,0.9
2018-11-11T00:26:44.870Z,0.9
2018-11-11T00:27:35.525Z,0.9
2018-11-11T00:28:25.731Z,0.8
2018-11-11T00:29:15.670Z,0.8
2018-11-11T00:30:05.100Z,0.8
2018-11-11T00:30:55.452Z,0.8
2018-11-11T00:31:45.211Z,0.8
2018-11-11T00:32:34.997Z,0.8
2018-11-11T00:33:25.627Z,0.8
2018-11-11T00:34:15.582Z,0.8
2018-11-11T00:35:05.457Z,0.8
2018-11-11T00:35:55.801Z,0.8
2018-11-11T00:36:45.843Z,0.8
2018-11-11T00:37:36.239Z,0.8
2018-11-11T00:38:25.704Z,0.8
2018-11-11T00:39:16.325Z,0.7
2018-11-11T00:40:05.527Z,0.7
2018-11-11T00:40:55.587Z,0.7
2018-11-11T00:41:46.244Z,0.7
2018-11-11T00:42:36.302Z,0.7
2018-11-11T00:43:26.344Z,0.7
2018-11-11T00:44:15.877Z,0.7
2018-11-11T00:45:06.194Z,0.6
2018-11-11T00:45:56.794Z,0.7
2018-11-11T00:46:46.602Z,0.6
2018-11-11T00:47:36.649Z,0.6
2018-11-11T00:48:26.731Z,0.6
2018-11-11T00:49:16.746Z,0.6
2018-11-11T00:50:06.833Z,0.6
2018-11-11T00:50:57.361Z,0.6
2018-11-11T00:51:46.943Z,0.6
2018-11-11T00:52:36.611Z,0.6
2018-11-11T00:53:26.791Z,0.6
2018-11-11T00:54:16.828Z,0.6
2018-11-11T00:55:07.196Z,0.6
2018-11-11T00:55:57.213Z,0.6
2018-11-11T00:56:47.296Z,0.5
2018-11-11T00:57:37.371Z,0.5
2018-11-11T00:58:27.437Z,0.5
2018-11-11T00:59:17.470Z,0.5
2018-11-11T01:00:07.538Z,0.4
2018-11-11T01:00:57.286Z,0.5
2018-11-11T01:01:47.949Z,0.4
2018-11-11T01:02:37.702Z,0.4
2018-11-11T01:03:28.056Z,0.4
2018-11-11T01:04:18.145Z,0.4
2018-11-11T01:05:08.176Z,0.4
2018-11-11T01:05:57.961Z,0.4
2018-11-11T01:06:48.015Z,0.4
2018-11-11T01:07:38.077Z,0.4
2018-11-11T01:08:28.120Z,0.4
2018-11-11T01:09:18.205Z,0.4
2018-11-11T01:10:08.765Z,0.4
2018-11-11T01:10:58.026Z,0.4
2018-11-11T01:11:48.099Z,0.4
2018-11-11T01:12:38.457Z,0.4
2018-11-11T01:13:28.485Z,0.3
2018-11-11T01:14:18.268Z,0.3
2018-11-11T01:15:08.147Z,0.3
2018-11-11T01:15:58.927Z,0.3
2018-11-11T01:16:48.532Z,0.3
2018-11-11T01:17:38.792Z,0.3
2018-11-11T01:18:28.577Z,0.3
2018-11-11T01:19:18.660Z,0.3
2018-11-11T01:20:09.005Z,0.3
2018-11-11T01:20:59.314Z,0.2
2018-11-11T01:21:49.399Z,0.2
2018-11-11T01:22:39.152Z,0.2
2018-11-11T01:23:28.965Z,0.2
2018-11-11T01:24:18.800Z,0.2
2018-11-11T01:25:09.050Z,0.1
2018-11-11T01:25:59.422Z,0.1
2018-11-11T01:26:49.417Z,0.1
2018-11-11T01:27:39.547Z,0.1
2018-11-11T01:28:29.863Z,0.1
2018-11-11T01:29:19.678Z,0.1
2018-11-11T01:30:09.713Z,0
2018-11-11T01:30:59.772Z,0
2018-11-11T01:31:49.534Z,0
2018-11-11T01:32:40.186Z,-0.1
2018-11-11T01:33:29.756Z,-0.1
2018-11-11T01:34:19.707Z,-0.1
2018-11-11T01:35:09.786Z,-0.1
2018-11-11T01:36:00.411Z,-0.1
2018-11-11T01:36:50.199Z,-0.1
2018-11-11T01:37:40.228Z,-0.2
2018-11-11T01:38:30.442Z,-0.2
2018-11-11T01:39:20.186Z,-0.2
2018-11-11T01:40:10.437Z,-0.2
2018-11-11T01:41:00.488Z,-0.2
2018-11-11T01:41:50.521Z,-0.2
2018-11-11T01:42:40.898Z,-0.2
2018-11-11T01:43:30.400Z,-0.2
2018-11-11T01:44:20.783Z,-0.3
2018-11-11T01:45:10.786Z,-0.3
2018-11-11T01:46:00.569Z,-0.2
2018-11-11T01:46:50.906Z,-0.3
2018-11-11T01:47:40.668Z,-0.3
2018-11-11T01:48:30.727Z,-0.3
2018-11-11T01:49:21.091Z,-0.3
2018-11-11T01:50:11.418Z,-0.3
2018-11-11T01:51:01.486Z,-0.3
2018-11-11T01:51:51.281Z,-0.3
2018-11-11T01:52:41.042Z,-0.3
2018-11-11T01:53:31.092Z,-0.3
2018-11-11T01:54:21.453Z,-0.3
2018-11-11T01:55:11.514Z,-0.3
2018-11-11T01:56:01.277Z,-0.3
2018-11-11T01:56:51.412Z,-0.3
2018-11-11T01:57:41.572Z,-0.3
2018-11-11T01:58:31.758Z,-0.3
2018-11-11T01:59:21.818Z,-0.3
2018-11-11T02:00:11.269Z,-0.3
2018-11-11T02:01:02.233Z,-0.3
2018-11-11T02:01:51.487Z,-0.3
2018-11-11T02:02:42.032Z,-0.3
2018-11-11T02:03:31.822Z,-0.3
2018-11-11T02:04:22.449Z,-0.3
2018-11-11T02:05:11.951Z,-0.3
2018-11-11T02:06:02.005Z,-0.3
2018-11-11T02:06:52.357Z,-0.3
2018-11-11T02:07:41.829Z,-0.3
2018-11-11T02:08:32.802Z,-0.3
2018-11-11T02:09:22.229Z,-0.3
2018-11-11T02:10:12.300Z,-0.3
2018-11-11T02:11:02.364Z,-0.3
2018-11-11T02:11:52.514Z,-0.3
2018-11-11T02:12:43.038Z,-0.3
2018-11-11T02:13:32.634Z,-0.3
2018-11-11T02:14:23.169Z,-0.3
2018-11-11T02:15:12.379Z,-0.3
2018-11-11T02:16:03.016Z,-0.3
2018-11-11T02:16:53.067Z,-0.3
2018-11-11T02:17:43.090Z,-0.3
2018-11-11T02:18:33.254Z,-0.4
2018-11-11T02:19:23.554Z,-0.4
2018-11-11T02:20:13.336Z,-0.4
2018-11-11T02:21:03.594Z,-0.4
2018-11-11T02:21:53.715Z,-0.4
2018-11-11T02:22:44.017Z,-0.4
2018-11-11T02:23:33.823Z,-0.4
2018-11-11T02:24:23.600Z,-0.4
2018-11-11T02:25:13.376Z,-0.4
2018-11-11T02:26:03.509Z,-0.4
2018-11-11T02:26:54.071Z,-0.4
2018-11-11T02:27:43.326Z,-0.4
2018-11-11T02:28:33.145Z,-0.4
2018-11-11T02:29:23.376Z,-0.4
2018-11-11T02:30:13.832Z,-0.4
2018-11-11T02:31:04.363Z,-0.4
2018-11-11T02:31:53.945Z,-0.4
2018-11-11T02:32:43.919Z,-0.4
2018-11-11T02:33:33.502Z,-0.4
2018-11-11T02:34:24.049Z,-0.4
2018-11-11T02:35:13.909Z,-0.4
2018-11-11T02:36:03.978Z,-0.4
2018-11-11T02:36:54.103Z,-0.4
2018-11-11T02:37:45.505Z,-0.4
2018-11-11T02:38:33.845Z,-0.4
2018-11-11T02:39:24.479Z,-0.4
2018-11-11T02:40:14.255Z,-0.4
2018-11-11T02:41:04.304Z,-0.4
2018-11-11T02:41:54.660Z,-0.4
2018-11-11T02:42:44.458Z,-0.4
2018-11-11T02:43:34.747Z,-0.4
2018-11-11T02:44:24.833Z,-0.4
2018-11-11T02:45:14.911Z,-0.4
2018-11-11T02:46:04.375Z,-0.4
2018-11-11T02:46:55.022Z,-0.4
2018-11-11T02:47:44.797Z,-0.4
2018-11-11T02:48:35.149Z,-0.4
2018-11-11T02:49:24.916Z,-0.4
2018-11-11T02:50:14.490Z,-0.4
2018-11-11T02:51:05.000Z,-0.4
2018-11-11T02:51:55.102Z,-0.4
2018-11-11T02:52:44.873Z,-0.4
2018-11-11T02:53:34.884Z,-0.4
2018-11-11T02:54:25.297Z,-0.4
2018-11-11T02:55:15.628Z,-0.4
2018-11-11T02:56:05.114Z,-0.4
2018-11-11T02:56:55.712Z,-0.4
2018-11-11T02:57:45.243Z,-0.4
2018-11-11T02:58:35.547Z,-0.4
2018-11-11T02:59:25.637Z,-0.4
2018-11-11T03:00:15.412Z,-0.4
2018-11-11T03:01:06.024Z,-0.4
2018-11-11T03:01:55.805Z,-0.4
2018-11-11T03:02:45.889Z,-0.4
2018-11-11T03:03:35.946Z,-0.4
2018-11-11T03:04:26.460Z,-0.4
2018-11-11T03:05:16.351Z,-0.4
2018-11-11T03:06:06.115Z,-0.4
2018-11-11T03:06:55.881Z,-0.4
2018-11-11T03:07:46.557Z,-0.4
2018-11-11T03:08:36.109Z,-0.4
2018-11-11T03:09:27.416Z,-0.4
2018-11-11T03:10:17.219Z,-0.4
2018-11-11T03:11:06.939Z,-0.4
2018-11-11T03:11:57.312Z,-0.4
2018-11-11T03:12:46.918Z,-0.4
2018-11-11T03:13:36.940Z,-0.5
2018-11-11T03:14:27.503Z,-0.4
2018-11-11T03:15:17.053Z,-0.4
2018-11-11T03:16:06.835Z,-0.5
2018-11-11T03:16:57.686Z,-0.5
2018-11-11T03:17:47.250Z,-0.5
2018-11-11T03:18:37.507Z,-0.5
2018-11-11T03:19:27.544Z,-0.6
2018-11-11T03:20:17.921Z,-0.6
2018-11-11T03:21:07.171Z,-0.6
2018-11-11T03:21:57.266Z,-0.6
2018-11-11T03:22:47.302Z,-0.6
2018-11-11T03:23:38.162Z,-0.6
2018-11-11T03:24:27.442Z,-0.6
2018-11-11T03:25:17.198Z,-0.6
2018-11-11T03:26:07.254Z,-0.6
2018-11-11T03:26:57.894Z,-0.7
2018-11-11T03:27:47.665Z,-0.6
2018-11-11T03:28:37.999Z,-0.6
2018-11-11T03:29:28.070Z,-0.6
2018-11-11T03:30:17.856Z,-0.6
2018-11-11T03:31:08.104Z,-0.6
2018-11-11T03:31:58.772Z,-0.7
2018-11-11T03:32:48.819Z,-0.7
2018-11-11T03:33:38.616Z,-0.7
2018-11-11T03:34:28.980Z,-0.7
2018-11-11T03:35:18.122Z,-0.7
2018-11-11T03:36:08.747Z,-0.7
2018-11-11T03:36:59.049Z,-0.8
2018-11-11T03:37:49.164Z,-0.8
2018-11-11T03:38:38.441Z,-0.8
2018-11-11T03:39:29.289Z,-0.8
2018-11-11T03:40:18.819Z,-0.8
2018-11-11T03:41:09.124Z,-0.8
2018-11-11T03:41:58.876Z,-0.8
2018-11-11T03:42:49.219Z,-0.8
2018-11-11T03:43:39.282Z,-0.8
2018-11-11T03:44:28.862Z,-0.8
2018-11-11T03:45:19.986Z,-0.8
2018-11-11T03:46:09.483Z,-0.8
2018-11-11T03:46:59.531Z,-0.8
2018-11-11T03:47:49.668Z,-0.8
2018-11-11T03:48:39.749Z,-0.8
2018-11-11T03:49:29.716Z,-0.8
2018-11-11T03:50:19.446Z,-0.8
2018-11-11T03:51:09.634Z,-0.8
2018-11-11T03:51:59.896Z,-0.8
2018-11-11T03:52:50.260Z,-0.8
2018-11-11T03:53:39.726Z,-0.9
2018-11-11T03:54:30.081Z,-0.9
2018-11-11T03:55:20.398Z,-0.9
2018-11-11T03:56:10.171Z,-0.8
2018-11-11T03:57:00.532Z,-0.9
2018-11-11T03:57:50.834Z,-0.9
2018-11-11T03:58:40.350Z,-0.9
2018-11-11T04:00:20.775Z,-0.9
2018-11-11T04:04:30.491Z,-1
2018-11-11T04:06:11.426Z,-1
2018-11-11T04:07:01.063Z,-1
2018-11-11T04:07:51.050Z,-1
2018-11-11T04:08:41.088Z,-1.1
2018-11-11T04:09:31.140Z,-1.1
2018-11-11T04:10:21.648Z,-1.1
2018-11-11T04:11:11.532Z,-1.1
2018-11-11T04:12:01.045Z,-1.1
2018-11-11T04:12:51.668Z,-1.1
2018-11-11T04:13:41.457Z,-1.1
2018-11-11T04:14:31.213Z,-1.1
2018-11-11T04:15:21.571Z,-1.1
2018-11-11T04:16:11.602Z,-1.1
2018-11-11T04:17:01.780Z,-1.2
2018-11-11T04:17:51.754Z,-1.1
2018-11-11T04:18:42.081Z,-1.2
2018-11-11T04:19:31.957Z,-1.1
2018-11-11T04:20:22.227Z,-1.2
2018-11-11T04:21:11.795Z,-1.2
2018-11-11T04:22:02.320Z,-1.2
2018-11-11T04:22:52.117Z,-1.2
2018-11-11T04:23:42.692Z,-1.3
2018-11-11T04:24:31.948Z,-1.3
2018-11-11T04:25:22.284Z,-1.3
2018-11-11T04:26:12.066Z,-1.3
2018-11-11T04:27:02.711Z,-1.3
2018-11-11T04:27:52.529Z,-1.3
2018-11-11T04:28:42.846Z,-1.3
2018-11-11T04:29:32.591Z,-1.4
2018-11-11T04:30:22.961Z,-1.4
2018-11-11T04:31:13.214Z,-1.4
2018-11-11T04:32:03.054Z,-1.4
2018-11-11T04:32:52.809Z,-1.4
2018-11-11T04:33:43.175Z,-1.4
2018-11-11T04:34:33.232Z,-1.4
2018-11-11T04:35:23.008Z,-1.5
2018-11-11T04:36:13.052Z,-1.5
2018-11-11T04:54:16.119Z,-1.8
2018-11-11T04:55:06.156Z,-1.9
2018-11-11T04:55:56.414Z,-1.8
2018-11-11T04:56:46.488Z,-1.9
2018-11-11T04:57:36.550Z,-1.9
2018-11-11T04:58:26.332Z,-1.9
2018-11-11T04:59:16.335Z,-1.9
2018-11-11T05:00:06.224Z,-1.9
2018-11-11T05:00:56.778Z,-1.9
2018-11-11T05:01:46.551Z,-1.9
2018-11-11T05:02:36.316Z,-1.9
2018-11-11T05:03:26.649Z,-1.9
2018-11-11T05:04:17.022Z,-1.9
2018-11-11T05:05:06.748Z,-1.9
2018-11-11T05:05:56.855Z,-1.9
2018-11-11T05:06:47.183Z,-1.9
2018-11-11T05:07:37.255Z,-2
2018-11-11T05:08:27.024Z,-2
2018-11-11T05:09:17.347Z,-1.9
2018-11-11T05:10:07.449Z,-2
2018-11-11T05:10:56.918Z,-1.9
2018-11-11T05:11:47.260Z,-2
2018-11-11T05:12:37.302Z,-1.9
2018-11-11T05:13:26.507Z,-1.9
2018-11-11T05:14:17.168Z,-1.9
2018-11-11T05:15:06.880Z,-1.9
2018-11-11T05:15:57.267Z,-1.9
2018-11-11T05:16:47.607Z,-1.9
2018-11-11T05:17:37.942Z,-1.9
2018-11-11T05:18:27.627Z,-1.9
2018-11-11T05:19:18.093Z,-1.9
2018-11-11T05:20:07.929Z,-1.9
2018-11-11T05:20:57.872Z,-1.9
2018-11-11T05:21:48.121Z,-1.8
2018-11-11T05:22:38.040Z,-1.8
2018-11-11T05:23:28.089Z,-1.8
2018-11-11T05:24:18.440Z,-1.8
2018-11-11T05:25:07.625Z,-1.8
2018-11-11T05:25:58.535Z,-1.8
2018-11-11T05:26:48.322Z,-1.8
2018-11-11T05:27:38.668Z,-1.8
2018-11-11T05:28:28.431Z,-1.7
2018-11-11T05:29:18.504Z,-1.7
2018-11-11T05:30:08.521Z,-1.7
2018-11-11T05:30:58.389Z,-1.7
2018-11-11T05:31:48.681Z,-1.6
2018-11-11T05:32:39.034Z,-1.6
2018-11-11T05:33:28.317Z,-1.6
2018-11-11T05:34:19.144Z,-1.6
2018-11-11T05:35:08.938Z,-1.6
2018-11-11T05:35:58.482Z,-1.6
2018-11-11T05:36:49.349Z,-1.6
2018-11-11T05:37:39.112Z,-1.5
2018-11-11T05:38:28.877Z,-1.5
2018-11-11T05:39:18.942Z,-1.5
2018-11-11T05:40:09.004Z,-1.5
2018-11-11T05:40:59.851Z,-1.4
2018-11-11T05:41:49.137Z,-1.4
2018-11-11T05:42:39.153Z,-1.4
2018-11-11T05:43:29.541Z,-1.4
2018-11-11T05:44:19.594Z,-1.3
2018-11-11T05:45:09.643Z,-1.3
2018-11-11T05:45:59.685Z,-1.3
2018-11-11T05:46:49.570Z,-1.3
2018-11-11T05:47:39.540Z,-1.2
2018-11-11T05:48:29.571Z,-1.2
2018-11-11T05:49:19.462Z,-1.1
2018-11-11T05:50:09.799Z,-1.1
2018-11-11T05:51:00.831Z,-1.1
2018-11-11T05:51:49.831Z,-1.1
2018-11-11T05:52:40.513Z,-1
2018-11-11T05:53:30.513Z,-1
2018-11-11T05:55:10.641Z,-0.9
2018-11-11T05:56:00.700Z,-0.9
2018-11-11T05:56:50.488Z,-0.8
2018-11-11T05:57:40.524Z,-0.8
2018-11-11T05:58:30.935Z,-0.8
2018-11-11T05:59:20.162Z,-0.7
2018-11-11T06:00:10.987Z,-0.7
2018-11-11T06:01:00.578Z,-0.6
2018-11-11T06:01:50.815Z,-0.6
2018-11-11T06:02:40.402Z,-0.5
2018-11-11T06:03:30.657Z,-0.4
2018-11-11T06:04:20.997Z,-0.4
2018-11-11T06:05:10.785Z,-0.3
2018-11-11T06:06:01.377Z,-0.3
2018-11-11T06:06:50.942Z,-0.2
2018-11-11T06:07:41.049Z,-0.1
2018-11-11T06:08:31.797Z,-0.1
2018-11-11T06:09:21.360Z,0.1
2018-11-11T06:10:11.220Z,0.1
2018-11-11T06:11:01.466Z,0.3
2018-11-11T06:11:51.818Z,0.3
2018-11-11T06:12:41.892Z,0.4
2018-11-11T06:13:31.382Z,0.6
2018-11-11T06:14:21.722Z,0.8
2018-11-11T06:15:11.862Z,0.9
2018-11-11T06:16:01.442Z,1.1
2018-11-11T06:16:51.954Z,1.3
2018-11-11T06:17:42.232Z,1.6
2018-11-11T06:18:32.300Z,1.9
2018-11-11T06:19:21.799Z,2.2
2018-11-11T06:20:12.412Z,2.4
2018-11-11T06:21:02.199Z,2.8
2018-11-11T06:21:52.787Z,3.1
2018-11-11T06:22:42.400Z,3.4
2018-11-11T06:23:32.376Z,3.8
2018-11-11T06:24:22.416Z,4.1
2018-11-11T06:25:12.493Z,4.4
2018-11-11T06:26:02.859Z,4.8
2018-11-11T06:26:52.128Z,5.1
2018-11-11T06:27:42.780Z,5.4
2018-11-11T06:28:32.740Z,5.8
2018-11-11T06:29:22.798Z,6.1
2018-11-11T06:30:12.858Z,6.4
2018-11-11T06:31:02.921Z,6.8
2018-11-11T06:31:53.240Z,7.2
2018-11-11T06:32:42.429Z,7.6
2018-11-11T06:33:33.366Z,8.1
2018-11-11T06:34:23.246Z,8.4
2018-11-11T06:35:13.501Z,8.9
2018-11-11T06:36:03.277Z,9.3
2018-11-11T06:36:53.345Z,9.8
2018-11-11T06:37:42.800Z,10.3
2018-11-11T06:38:33.710Z,10.7
2018-11-11T06:39:23.485Z,11.2
2018-11-11T06:40:13.060Z,11.6
2018-11-11T06:41:03.325Z,12
2018-11-11T06:41:53.668Z,12.5
2018-11-11T06:42:44.044Z,12.9
2018-11-11T06:43:33.220Z,13.4
2018-11-11T06:44:23.619Z,13.9
2018-11-11T06:45:14.197Z,14.3
2018-11-11T06:46:03.980Z,14.7
2018-11-11T06:46:54.015Z,15.2
2018-11-11T06:47:43.507Z,15.6
2018-11-11T06:48:34.145Z,16.1
2018-11-11T06:49:23.630Z,16.4
2018-11-11T06:50:14.582Z,16.9
2018-11-11T06:51:04.315Z,17.3
2018-11-11T06:51:54.104Z,17.8
2018-11-11T06:52:44.729Z,18.2
2018-11-11T06:53:34.501Z,18.6
2018-11-11T06:54:24.847Z,19.1
2018-11-11T06:55:14.417Z,19.5
2018-11-11T06:56:04.102Z,19.9
2018-11-11T06:56:54.469Z,20.4
2018-11-11T06:57:44.567Z,20.8
2018-11-11T06:58:35.077Z,21.3
2018-11-11T06:59:25.222Z,21.8
2018-11-11T07:00:14.401Z,22.3
2018-11-11T07:01:05.346Z,22.7
2018-11-11T07:01:55.096Z,23.1
2018-11-11T07:02:45.149Z,23.6
2018-11-11T07:03:34.878Z,24.1
2018-11-11T07:04:25.557Z,24.5
2018-11-11T07:05:14.749Z,25
2018-11-11T07:06:05.211Z,25.5
2018-11-11T07:06:55.458Z,25.9
2018-11-11T07:07:45.753Z,26.4
2018-11-11T07:08:36.146Z,27
2018-11-11T07:09:25.441Z,27.5
2018-11-11T07:10:15.988Z,28
2018-11-11T07:11:06.051Z,28.5
2018-11-11T07:11:55.330Z,29
2018-11-11T07:12:46.155Z,29.5
2018-11-11T07:13:36.209Z,30
2018-11-11T07:14:25.791Z,30.5
2018-11-11T07:15:15.860Z,31
2018-11-11T07:16:06.109Z,31.5
2018-11-11T07:16:56.177Z,32
2018-11-11T07:17:46.037Z,32.6
2018-11-11T07:18:36.295Z,33.1
2018-11-11T07:19:25.755Z,33.6
2018-11-11T07:20:16.383Z,34.1
2018-11-11T07:21:06.475Z,34.6
2018-11-11T07:21:56.800Z,35.2
2018-11-11T07:22:46.822Z,35.8
2018-11-11T07:23:36.536Z,36.3
2018-11-11T07:24:26.705Z,36.8
2018-11-11T07:25:17.042Z,37.2
2018-11-11T07:26:06.800Z,37.7
2018-11-11T07:26:56.875Z,38.1
2018-11-11T07:27:47.489Z,38.6
2018-11-11T07:28:36.702Z,39
2018-11-11T07:29:27.062Z,39.4
2018-11-11T07:30:16.935Z,39.8
2018-11-11T07:31:07.457Z,40.1
2018-11-11T07:31:57.235Z,40.4
2018-11-11T07:32:47.007Z,40.8
2018-11-11T07:33:37.404Z,41
2018-11-11T07:34:27.229Z,41.3
2018-11-11T07:35:17.737Z,41.6
2018-11-11T07:36:07.797Z,41.8
2018-11-11T07:36:57.872Z,42.1
2018-11-11T07:37:47.894Z,42.4
2018-11-11T07:38:37.382Z,42.8
2018-11-11T07:39:27.472Z,43.1
2018-11-11T07:40:17.549Z,43.4
2018-11-11T07:41:07.899Z,43.8
2018-11-11T07:41:58.219Z,44.3
2018-11-11T07:42:47.730Z,44.6
2018-11-11T07:43:38.129Z,45.1
2018-11-11T07:44:27.931Z,45.5
2018-11-11T07:45:17.905Z,45.9
2018-11-11T07:46:08.239Z,46.4
2018-11-11T07:46:58.411Z,46.8
2018-11-11T07:47:48.800Z,47.3
2018-11-11T07:48:38.021Z,47.8
2018-11-11T07:49:28.197Z,48.4
2018-11-11T07:50:18.558Z,49.9
2018-11-11T07:51:08.311Z,50
2018-11-11T07:51:58.696Z,49.1
2018-11-11T07:52:49.003Z,47.1
2018-11-11T07:53:38.532Z,43.1
2018-11-11T07:54:28.831Z,40.1
2018-11-11T07:55:19.001Z,38.4
2018-11-11T07:56:08.756Z,37.4
2018-11-11T07:56:58.733Z,36.8
2018-11-11T07:57:49.075Z,36.6
2018-11-11T07:58:39.220Z,36.7
2018-11-11T07:59:28.910Z,36.9
2018-11-11T08:00:19.273Z,37.4
2018-11-11T08:01:09.033Z,38.1
2018-11-11T08:01:58.852Z,38.8
2018-11-11T08:02:49.432Z,39.6
2018-11-11T08:03:38.928Z,40.4
2018-11-11T08:04:29.520Z,41.3
2018-11-11T08:05:19.037Z,42.1
2018-11-11T08:06:09.398Z,42.9
2018-11-11T08:06:59.532Z,43.8
2018-11-11T08:07:49.792Z,44.6
2018-11-11T08:08:39.817Z,45.4
2018-11-11T08:09:29.630Z,46.3
2018-11-11T08:10:19.990Z,47.1
2018-11-11T08:11:10.853Z,47.9
2018-11-11T08:11:59.905Z,49.6
2018-11-11T08:12:50.150Z,50.6
2018-11-11T08:13:40.222Z,50.1
2018-11-11T08:14:30.267Z,49.3
2018-11-11T08:15:20.323Z,47.6
2018-11-11T08:16:10.695Z,45.6
2018-11-11T08:17:00.262Z,43.8
2018-11-11T08:17:50.787Z,42.8
2018-11-11T08:18:40.282Z,42.4
2018-11-11T08:19:30.605Z,42.5
2018-11-11T08:20:20.669Z,42.9
2018-11-11T08:21:11.056Z,43.5
2018-11-11T08:22:00.822Z,44.2
2018-11-11T08:22:50.876Z,45.1
2018-11-11T08:23:40.934Z,45.9
2018-11-11T08:24:30.986Z,46.9
2018-11-11T08:25:21.462Z,47.8
2018-11-11T08:26:10.621Z,49.9
2018-11-11T08:27:00.476Z,51.1
2018-11-11T08:27:51.226Z,51.3
2018-11-11T08:28:41.302Z,51.3
2018-11-11T08:29:31.054Z,50.3
2018-11-11T08:30:20.921Z,48.4
2018-11-11T08:31:11.751Z,46.8
2018-11-11T08:32:01.683Z,46.3
2018-11-11T08:32:51.866Z,46.9
2018-11-11T08:33:41.166Z,47.8
2018-11-11T08:34:31.963Z,48.5
2018-11-11T08:35:21.766Z,48.8
2018-11-11T08:36:12.116Z,48.8
2018-11-11T08:37:01.586Z,48.4
2018-11-11T08:37:51.938Z,48.1
2018-11-11T08:38:42.283Z,47.9
2018-11-11T08:39:31.763Z,48.1
2018-11-11T08:40:22.225Z,48.4
2018-11-11T08:41:11.991Z,48.7
2018-11-11T08:42:01.948Z,48.9
2018-11-11T08:42:52.343Z,49.1
2018-11-11T08:43:42.346Z,49
2018-11-11T08:44:32.118Z,49
2018-11-11T08:45:22.473Z,49
2018-11-11T08:46:12.248Z,49.1
2018-11-11T08:47:02.293Z,49.3
2018-11-11T08:47:52.648Z,49.4
2018-11-11T08:48:43.010Z,49.6
2018-11-11T08:49:33.022Z,49.6
2018-11-11T08:50:22.845Z,49.7
2018-11-11T08:51:12.612Z,49.8
2018-11-11T08:52:03.232Z,49.8
2018-11-11T09:08:43.799Z,51.7
2018-11-11T09:09:33.576Z,51.8
2018-11-11T09:10:24.700Z,51.8
2018-11-11T09:11:14.415Z,51.9
2018-11-11T09:12:54.066Z,52.1
2018-11-11T09:13:44.128Z,52.1
2018-11-11T09:14:34.461Z,52.3
2018-11-11T09:16:14.605Z,52.5
2018-11-11T09:17:04.468Z,52.6
2018-11-11T09:17:54.451Z,52.7
2018-11-11T09:18:44.766Z,52.8
2018-11-11T09:19:34.546Z,52.8
2018-11-11T09:20:24.883Z,52.9
2018-11-11T09:21:14.766Z,52.9
2018-11-11T09:22:04.728Z,53.1
2018-11-11T09:22:54.218Z,53.1
2018-11-11T09:23:44.628Z,53.3
2018-11-11T09:24:34.343Z,53.3
2018-11-11T09:25:25.211Z,53.4
2018-11-11T09:26:15.037Z,53.5
2018-11-11T09:27:05.378Z,53.6
2018-11-11T09:27:55.475Z,53.7
2018-11-11T09:28:45.220Z,53.8
2018-11-11T09:29:36.117Z,53.9
2018-11-11T09:30:26.151Z,54
2018-11-11T09:31:15.415Z,54.1
2018-11-11T09:32:05.193Z,54.1
2018-11-11T09:32:55.797Z,54.2
2018-11-11T09:33:45.371Z,54.2
2018-11-11T09:34:35.935Z,54.3
2018-11-11T09:35:26.556Z,54.3
2018-11-11T09:36:15.501Z,54.3
2018-11-11T09:37:05.829Z,54.4
2018-11-11T09:37:55.673Z,54.4
2018-11-11T09:38:46.033Z,54.6
2018-11-11T09:39:36.287Z,54.6
2018-11-11T09:40:26.065Z,54.8
2018-11-11T09:41:16.415Z,54.8
2018-11-11T09:42:06.212Z,54.9
2018-11-11T09:42:56.240Z,54.9
2018-11-11T09:43:46.022Z,55
2018-11-11T09:44:36.169Z,55.1
2018-11-11T09:45:26.712Z,55.1
2018-11-11T09:46:16.794Z,55.1
2018-11-11T09:47:06.558Z,55.1
2018-11-11T09:47:56.842Z,55.1
2018-11-11T09:48:46.641Z,55.1
2018-11-11T09:49:36.715Z,55
2018-11-11T09:50:26.774Z,55.1
2018-11-11T09:51:16.634Z,55.1
2018-11-11T09:52:06.439Z,55.1
2018-11-11T09:52:56.376Z,55.1
2018-11-11T09:53:46.813Z,55.2
2018-11-11T09:54:37.365Z,55.3
2018-11-11T09:55:27.138Z,55.3
2018-11-11T09:56:17.213Z,55.4
2018-11-11T09:57:07.530Z,55.5
2018-11-11T09:57:57.637Z,55.6
2018-11-11T09:58:47.610Z,55.6
2018-11-11T09:59:37.597Z,55.7
2018-11-11T10:00:27.800Z,55.8
2018-11-11T10:01:17.870Z,55.9
2018-11-11T10:02:07.336Z,56
2018-11-11T10:02:57.684Z,56
2018-11-11T10:03:47.540Z,56.1
2018-11-11T10:04:37.790Z,56.1
2018-11-11T10:05:28.136Z,56
2018-11-11T10:06:18.070Z,55.9
2018-11-11T10:07:08.257Z,55.8
2018-11-11T10:07:57.762Z,55.7
2018-11-11T10:08:47.742Z,55.6
2018-11-11T10:09:37.592Z,55.6
2018-11-11T10:10:27.921Z,55.6
2018-11-11T10:11:18.295Z,55.7
2018-11-11T10:12:08.380Z,55.8
2018-11-11T10:12:58.143Z,55.9
2018-11-11T10:13:47.599Z,56.1
2018-11-11T10:14:38.249Z,56.2
2018-11-11T10:15:28.005Z,56.4
2018-11-11T10:16:18.346Z,56.5
2018-11-11T10:17:08.133Z,56.6
2018-11-11T10:17:58.566Z,56.7
2018-11-11T10:18:48.643Z,56.7
2018-11-11T10:19:38.601Z,56.7
2018-11-11T10:20:29.322Z,56.7
2018-11-11T10:21:19.277Z,56.7
2018-11-11T10:22:09.048Z,56.8
2018-11-11T10:22:59.219Z,56.9
2018-11-11T10:23:49.481Z,56.9
2018-11-11T10:24:38.962Z,57.1
2018-11-11T10:25:28.812Z,57.1
2018-11-11T10:26:19.368Z,57.2
2018-11-11T10:27:09.668Z,57.2
2018-11-11T10:27:58.711Z,57.2
2018-11-11T10:28:49.540Z,57.1
2018-11-11T10:29:39.467Z,57.1
2018-11-11T10:30:29.483Z,57.1
2018-11-11T10:31:19.441Z,57.2
2018-11-11T10:32:09.503Z,57.2
2018-11-11T10:33:00.160Z,57.3
2018-11-11T10:33:49.928Z,57.3
2018-11-11T10:34:39.680Z,57.4
2018-11-11T10:35:30.315Z,57.4
2018-11-11T10:36:20.050Z,57.5
2018-11-11T10:37:09.394Z,57.5
2018-11-11T10:38:00.218Z,57.6
2018-11-11T10:38:49.708Z,57.6
2018-11-11T10:39:40.612Z,57.6
2018-11-11T10:40:30.720Z,57.6
2018-11-11T10:41:20.472Z,57.6
2018-11-11T10:42:10.758Z,57.7
2018-11-11T10:43:50.368Z,57.8
2018-11-11T10:44:40.651Z,57.9
2018-11-11T10:45:30.465Z,57.8
2018-11-11T10:47:11.155Z,57.7
2018-11-11T10:48:00.947Z,57.7
2018-11-11T10:48:50.997Z,57.7
2018-11-11T10:49:40.777Z,57.7
2018-11-11T10:51:21.172Z,57.8
2018-11-11T10:52:11.039Z,57.8
2018-11-11T10:53:01.582Z,57.7
2018-11-11T10:53:51.334Z,57.6
2018-11-11T10:54:41.689Z,57.5
2018-11-11T10:55:31.477Z,57.4
2018-11-11T10:56:20.947Z,57.4
2018-11-11T10:57:11.597Z,57.4
2018-11-11T10:58:01.641Z,57.4
2018-11-11T10:58:51.711Z,57.5
2018-11-11T10:59:41.766Z,57.5
2018-11-11T11:00:31.267Z,57.6
2018-11-11T11:01:21.706Z,57.6
2018-11-11T11:02:11.979Z,57.6
2018-11-11T11:03:02.004Z,57.6
2018-11-11T11:03:51.789Z,57.7
2018-11-11T11:04:41.574Z,57.7
2018-11-11T11:05:32.194Z,57.6
2018-11-11T11:06:22.554Z,57.6
2018-11-11T11:07:12.658Z,57.6
2018-11-11T11:08:02.486Z,57.5
2018-11-11T11:08:52.161Z,57.4
2018-11-11T11:09:42.216Z,57.3
2018-11-11T11:10:32.856Z,57.2
2018-11-11T11:11:22.627Z,57.1
2018-11-11T11:12:12.670Z,56.9
2018-11-11T11:13:03.110Z,56.8
2018-11-11T11:13:53.593Z,56.7
2018-11-11T11:14:43.141Z,56.6
2018-11-11T11:15:32.448Z,56.5
2018-11-11T11:16:23.000Z,56.4
2018-11-11T11:17:12.765Z,56.4
2018-11-11T11:18:03.123Z,56.3
2018-11-11T11:18:52.596Z,56.2
2018-11-11T11:19:43.236Z,56.1
2018-11-11T11:20:33.297Z,56
2018-11-11T11:21:22.778Z,55.9
2018-11-11T11:22:13.407Z,55.8
2018-11-11T11:23:04.482Z,55.6
2018-11-11T11:23:53.260Z,55.5
2018-11-11T11:24:43.296Z,55.4
2018-11-11T11:25:33.702Z,55.4
2018-11-11T11:26:23.720Z,55.3
2018-11-11T11:27:14.344Z,55.3
2018-11-11T11:28:03.617Z,55.2
2018-11-11T11:28:54.417Z,55.1
2018-11-11T11:29:43.948Z,55.1
2018-11-11T11:30:34.262Z,55.1
2018-11-11T11:31:24.193Z,55.1
2018-11-11T11:32:14.525Z,55.1
2018-11-11T11:33:04.145Z,55.1
2018-11-11T11:33:54.324Z,55
2018-11-11T11:34:44.291Z,54.9
2018-11-11T11:35:35.063Z,54.8
2018-11-11T11:36:24.186Z,54.6
2018-11-11T11:37:14.787Z,54.5
2018-11-11T11:38:04.701Z,54.4
2018-11-11T11:38:54.617Z,54.2
2018-11-11T11:39:44.694Z,54.1
2018-11-11T11:40:34.751Z,54.1
2018-11-11T11:41:25.129Z,54
2018-11-11T11:42:14.857Z,54
2018-11-11T11:43:04.626Z,54
2018-11-11T11:43:54.797Z,54
2018-11-11T11:44:45.316Z,54
2018-11-11T11:45:35.086Z,54
2018-11-11T11:46:24.958Z,54
2018-11-11T11:47:15.708Z,54
2018-11-11T11:48:05.827Z,54
2018-11-11T11:48:55.458Z,54.1
2018-11-11T11:49:45.175Z,54.1
2018-11-11T11:50:35.601Z,54.2
2018-11-11T11:51:25.321Z,54.3
2018-11-11T11:52:15.945Z,54.2
2018-11-11T11:53:06.633Z,54.1
2018-11-11T11:53:55.975Z,54
2018-11-11T11:54:45.765Z,53.9
2018-11-11T11:55:35.813Z,53.9
2018-11-11T11:56:25.876Z,54
2018-11-11T11:57:15.943Z,54.1
2018-11-11T11:58:05.929Z,54.2
2018-11-11T11:58:55.778Z,54.3
2018-11-11T11:59:46.436Z,54.4
2018-11-11T12:00:35.995Z,54.4
2018-11-11T12:01:25.953Z,54.5
2018-11-11T12:02:16.286Z,54.4
2018-11-11T12:03:06.087Z,54.4
2018-11-11T12:03:56.140Z,54.3
2018-11-11T12:04:46.278Z,54.2
2018-11-11T12:05:36.542Z,54.1
2018-11-11T12:06:26.590Z,54
2018-11-11T12:07:16.973Z,53.9
2018-11-11T12:08:06.247Z,53.8
2018-11-11T12:08:56.916Z,53.7
2018-11-11T12:09:46.556Z,53.6
2018-11-11T12:10:36.227Z,53.5
2018-11-11T12:11:26.407Z,53.5
2018-11-11T12:12:16.834Z,53.4